sensor_id;sensor_type;location;lat;lon;timestamp;P1;durP1;ratioP1;P2;durP2;ratioP2
80193;SDS011;69515;42.072;21.504;2023-05-10T00:02:16;0.60;;;0.57;;
80193;SDS011;69515;42.072;21.504;2023-05-10T00:04:42;0.98;;;0.70;;
80193;SDS011;69515;42.072;21.504;2023-05-10T00:07:09;0.77;;;0.70;;
80193;SDS011;69515;42.072;21.504;2023-05-10T00:09:35;0.77;;;0.65;;
80193;SDS011;69515;42.072;21.504;2023-05-10T00:12:01;1.15;;;0.60;;
80193;SDS011;69515;42.072;21.504;2023-05-10T00:14:27;0.73;;;0.68;;
80193;SDS011;69515;42.072;21.504;2023-05-10T00:16:54;0.68;;;0.68;;
80193;SDS011;69515;42.072;21.504;2023-05-10T00:19:20;0.85;;;0.65;;
80193;SDS011;69515;42.072;21.504;2023-05-10T00:21:46;0.65;;;0.65;;
80193;SDS011;69515;42.072;21.504;2023-05-10T00:24:12;0.50;;;0.50;;
80193;SDS011;69515;42.072;21.504;2023-05-10T00:26:39;1.10;;;0.70;;
80193;SDS011;69515;42.072;21.504;2023-05-10T00:29:07;0.60;;;0.60;;
80193;SDS011;69515;42.072;21.504;2023-05-10T00:31:33;0.70;;;0.60;;
80193;SDS011;69515;42.072;21.504;2023-05-10T00:33:59;0.60;;;0.60;;
80193;SDS011;69515;42.072;21.504;2023-05-10T00:36:26;0.90;;;0.68;;
80193;SDS011;69515;42.072;21.504;2023-05-10T00:38:52;2.25;;;0.70;;
80193;SDS011;69515;42.072;21.504;2023-05-10T00:41:19;0.85;;;0.70;;
80193;SDS011;69515;42.072;21.504;2023-05-10T00:43:46;1.27;;;0.60;;
80193;SDS011;69515;42.072;21.504;2023-05-10T00:46:13;0.60;;;0.60;;
80193;SDS011;69515;42.072;21.504;2023-05-10T00:48:40;1.02;;;0.60;;
80193;SDS011;69515;42.072;21.504;2023-05-10T00:51:06;0.70;;;0.50;;
80193;SDS011;69515;42.072;21.504;2023-05-10T00:53:32;0.68;;;0.60;;
80193;SDS011;69515;42.072;21.504;2023-05-10T00:56:00;0.57;;;0.57;;
80193;SDS011;69515;42.072;21.504;2023-05-10T00:58:28;0.93;;;0.50;;
80193;SDS011;69515;42.072;21.504;2023-05-10T01:00:56;0.70;;;0.50;;
80193;SDS011;69515;42.072;21.504;2023-05-10T01:03:22;1.38;;;0.55;;
80193;SDS011;69515;42.072;21.504;2023-05-10T01:05:49;0.45;;;0.45;;
80193;SDS011;69515;42.072;21.504;2023-05-10T01:08:15;0.57;;;0.55;;
80193;SDS011;69515;42.072;21.504;2023-05-10T01:10:42;0.80;;;0.60;;
80193;SDS011;69515;42.072;21.504;2023-05-10T01:13:09;1.08;;;0.65;;
80193;SDS011;69515;42.072;21.504;2023-05-10T01:15:35;0.40;;;0.40;;
80193;SDS011;69515;42.072;21.504;2023-05-10T01:18:02;0.50;;;0.50;;
80193;SDS011;69515;42.072;21.504;2023-05-10T01:20:31;0.40;;;0.40;;
80193;SDS011;69515;42.072;21.504;2023-05-10T01:25:55;0.80;;;0.50;;
80193;SDS011;69515;42.072;21.504;2023-05-10T01:38:29;0.43;;;0.43;;
80193;SDS011;69515;42.072;21.504;2023-05-10T01:46:35;0.55;;;0.52;;
80193;SDS011;69515;42.072;21.504;2023-05-10T01:49:08;0.65;;;0.50;;
80193;SDS011;69515;42.072;21.504;2023-05-10T01:51:53;0.60;;;0.60;;
80193;SDS011;69515;42.072;21.504;2023-05-10T01:54:20;0.95;;;0.63;;
80193;SDS011;69515;42.072;21.504;2023-05-10T01:56:52;0.80;;;0.60;;
80193;SDS011;69515;42.072;21.504;2023-05-10T01:59:22;0.50;;;0.50;;
80193;SDS011;69515;42.072;21.504;2023-05-10T02:01:49;1.05;;;0.60;;
80193;SDS011;69515;42.072;21.504;2023-05-10T02:04:17;0.55;;;0.55;;
80193;SDS011;69515;42.072;21.504;2023-05-10T02:06:45;0.90;;;0.52;;
80193;SDS011;69515;42.072;21.504;2023-05-10T02:09:13;1.05;;;0.70;;
80193;SDS011;69515;42.072;21.504;2023-05-10T02:11:41;0.60;;;0.60;;
80193;SDS011;69515;42.072;21.504;2023-05-10T02:14:08;1.08;;;0.60;;
80193;SDS011;69515;42.072;21.504;2023-05-10T02:16:35;0.60;;;0.60;;
80193;SDS011;69515;42.072;21.504;2023-05-10T02:19:02;0.50;;;0.50;;
80193;SDS011;69515;42.072;21.504;2023-05-10T02:21:29;0.57;;;0.50;;
80193;SDS011;69515;42.072;21.504;2023-05-10T02:23:56;0.93;;;0.70;;
80193;SDS011;69515;42.072;21.504;2023-05-10T02:26:23;0.80;;;0.60;;
80193;SDS011;69515;42.072;21.504;2023-05-10T02:28:50;0.77;;;0.70;;
80193;SDS011;69515;42.072;21.504;2023-05-10T02:31:17;0.50;;;0.50;;
80193;SDS011;69515;42.072;21.504;2023-05-10T02:33:44;1.05;;;0.60;;
80193;SDS011;69515;42.072;21.504;2023-05-10T02:36:10;1.45;;;0.70;;
80193;SDS011;69515;42.072;21.504;2023-05-10T02:38:38;0.70;;;0.60;;
80193;SDS011;69515;42.072;21.504;2023-05-10T02:41:05;0.70;;;0.60;;
80193;SDS011;69515;42.072;21.504;2023-05-10T02:43:32;0.63;;;0.60;;
80193;SDS011;69515;42.072;21.504;2023-05-10T02:45:59;0.73;;;0.60;;
80193;SDS011;69515;42.072;21.504;2023-05-10T02:48:25;0.70;;;0.70;;
80193;SDS011;69515;42.072;21.504;2023-05-10T02:50:52;0.82;;;0.77;;
80193;SDS011;69515;42.072;21.504;2023-05-10T02:53:22;1.02;;;0.80;;
80193;SDS011;69515;42.072;21.504;2023-05-10T02:55:49;0.60;;;0.60;;
80193;SDS011;69515;42.072;21.504;2023-05-10T02:58:16;0.93;;;0.70;;
80193;SDS011;69515;42.072;21.504;2023-05-10T03:00:44;0.70;;;0.60;;
80193;SDS011;69515;42.072;21.504;2023-05-10T03:03:11;0.63;;;0.63;;
80193;SDS011;69515;42.072;21.504;2023-05-10T03:05:37;0.73;;;0.68;;
80193;SDS011;69515;42.072;21.504;2023-05-10T03:08:04;0.60;;;0.50;;
80193;SDS011;69515;42.072;21.504;2023-05-10T03:10:31;0.70;;;0.60;;
80193;SDS011;69515;42.072;21.504;2023-05-10T03:13:12;0.60;;;0.60;;
80193;SDS011;69515;42.072;21.504;2023-05-10T03:18:14;0.60;;;0.60;;
80193;SDS011;69515;42.072;21.504;2023-05-10T03:20:41;1.35;;;0.80;;
80193;SDS011;69515;42.072;21.504;2023-05-10T03:23:16;0.75;;;0.60;;
80193;SDS011;69515;42.072;21.504;2023-05-10T03:25:46;1.00;;;0.77;;
80193;SDS011;69515;42.072;21.504;2023-05-10T03:28:14;0.60;;;0.60;;
80193;SDS011;69515;42.072;21.504;2023-05-10T03:30:41;0.75;;;0.65;;
80193;SDS011;69515;42.072;21.504;2023-05-10T03:33:08;0.50;;;0.50;;
80193;SDS011;69515;42.072;21.504;2023-05-10T03:35:35;0.98;;;0.70;;
80193;SDS011;69515;42.072;21.504;2023-05-10T03:38:02;0.70;;;0.60;;
80193;SDS011;69515;42.072;21.504;2023-05-10T03:40:28;0.95;;;0.70;;
80193;SDS011;69515;42.072;21.504;2023-05-10T03:42:56;0.88;;;0.60;;
80193;SDS011;69515;42.072;21.504;2023-05-10T03:45:22;0.60;;;0.60;;
80193;SDS011;69515;42.072;21.504;2023-05-10T03:47:49;0.63;;;0.60;;
80193;SDS011;69515;42.072;21.504;2023-05-10T03:50:15;0.95;;;0.63;;
80193;SDS011;69515;42.072;21.504;2023-05-10T03:52:41;0.70;;;0.70;;
80193;SDS011;69515;42.072;21.504;2023-05-10T03:55:08;0.57;;;0.57;;
80193;SDS011;69515;42.072;21.504;2023-05-10T03:57:34;0.88;;;0.70;;
80193;SDS011;69515;42.072;21.504;2023-05-10T04:00:01;0.93;;;0.63;;
80193;SDS011;69515;42.072;21.504;2023-05-10T04:02:27;1.83;;;0.50;;
80193;SDS011;69515;42.072;21.504;2023-05-10T04:04:54;0.70;;;0.70;;
80193;SDS011;69515;42.072;21.504;2023-05-10T04:07:21;1.00;;;0.70;;
80193;SDS011;69515;42.072;21.504;2023-05-10T04:09:47;0.55;;;0.50;;
80193;SDS011;69515;42.072;21.504;2023-05-10T04:12:13;0.80;;;0.73;;
80193;SDS011;69515;42.072;21.504;2023-05-10T04:14:39;1.10;;;0.70;;
80193;SDS011;69515;42.072;21.504;2023-05-10T04:17:06;0.82;;;0.60;;
80193;SDS011;69515;42.072;21.504;2023-05-10T04:19:32;0.93;;;0.75;;
80193;SDS011;69515;42.072;21.504;2023-05-10T04:21:58;0.57;;;0.52;;
80193;SDS011;69515;42.072;21.504;2023-05-10T04:24:25;0.70;;;0.70;;
80193;SDS011;69515;42.072;21.504;2023-05-10T04:26:51;0.70;;;0.70;;
80193;SDS011;69515;42.072;21.504;2023-05-10T04:29:17;0.70;;;0.70;;
80193;SDS011;69515;42.072;21.504;2023-05-10T04:31:43;0.77;;;0.77;;
80193;SDS011;69515;42.072;21.504;2023-05-10T04:34:09;1.83;;;0.80;;
80193;SDS011;69515;42.072;21.504;2023-05-10T04:36:36;1.20;;;0.80;;
80193;SDS011;69515;42.072;21.504;2023-05-10T04:39:02;1.02;;;0.80;;
80193;SDS011;69515;42.072;21.504;2023-05-10T04:41:28;0.85;;;0.82;;
80193;SDS011;69515;42.072;21.504;2023-05-10T04:43:55;1.33;;;0.90;;
80193;SDS011;69515;42.072;21.504;2023-05-10T04:46:21;1.23;;;1.00;;
80193;SDS011;69515;42.072;21.504;2023-05-10T04:48:47;1.10;;;0.80;;
80193;SDS011;69515;42.072;21.504;2023-05-10T04:51:13;1.15;;;0.85;;
80193;SDS011;69515;42.072;21.504;2023-05-10T04:53:40;1.58;;;0.80;;
80193;SDS011;69515;42.072;21.504;2023-05-10T04:56:06;1.60;;;0.90;;
80193;SDS011;69515;42.072;21.504;2023-05-10T04:58:32;1.10;;;0.80;;
80193;SDS011;69515;42.072;21.504;2023-05-10T05:01:04;1.13;;;0.65;;
80193;SDS011;69515;42.072;21.504;2023-05-10T05:03:31;0.60;;;0.60;;
80193;SDS011;69515;42.072;21.504;2023-05-10T05:05:57;0.60;;;0.60;;
80193;SDS011;69515;42.072;21.504;2023-05-10T05:08:24;1.00;;;0.57;;
80193;SDS011;69515;42.072;21.504;2023-05-10T05:10:50;0.77;;;0.57;;
80193;SDS011;69515;42.072;21.504;2023-05-10T05:13:16;0.65;;;0.55;;
80193;SDS011;69515;42.072;21.504;2023-05-10T05:15:42;0.80;;;0.80;;
80193;SDS011;69515;42.072;21.504;2023-05-10T05:18:09;1.55;;;0.80;;
80193;SDS011;69515;42.072;21.504;2023-05-10T05:20:35;0.90;;;0.60;;
80193;SDS011;69515;42.072;21.504;2023-05-10T05:23:01;1.13;;;0.75;;
80193;SDS011;69515;42.072;21.504;2023-05-10T05:25:28;0.70;;;0.68;;
80193;SDS011;69515;42.072;21.504;2023-05-10T05:27:54;0.77;;;0.63;;
80193;SDS011;69515;42.072;21.504;2023-05-10T05:30:20;2.20;;;0.85;;
80193;SDS011;69515;42.072;21.504;2023-05-10T05:32:46;1.60;;;0.88;;
80193;SDS011;69515;42.072;21.504;2023-05-10T05:35:13;9.70;;;1.95;;
80193;SDS011;69515;42.072;21.504;2023-05-10T05:37:39;13.93;;;3.13;;
80193;SDS011;69515;42.072;21.504;2023-05-10T05:40:05;23.58;;;6.40;;
80193;SDS011;69515;42.072;21.504;2023-05-10T05:42:32;38.42;;;8.52;;
80193;SDS011;69515;42.072;21.504;2023-05-10T05:44:58;6.07;;;1.83;;
80193;SDS011;69515;42.072;21.504;2023-05-10T05:47:24;0.80;;;0.70;;
80193;SDS011;69515;42.072;21.504;2023-05-10T05:49:50;1.13;;;0.80;;
80193;SDS011;69515;42.072;21.504;2023-05-10T05:52:17;0.80;;;0.70;;
80193;SDS011;69515;42.072;21.504;2023-05-10T05:54:43;0.82;;;0.57;;
80193;SDS011;69515;42.072;21.504;2023-05-10T05:57:09;1.00;;;0.77;;
80193;SDS011;69515;42.072;21.504;2023-05-10T05:59:37;1.30;;;0.80;;
80193;SDS011;69515;42.072;21.504;2023-05-10T06:02:24;1.05;;;0.70;;
80193;SDS011;69515;42.072;21.504;2023-05-10T06:04:50;0.75;;;0.70;;
80193;SDS011;69515;42.072;21.504;2023-05-10T06:07:16;1.30;;;0.90;;
80193;SDS011;69515;42.072;21.504;2023-05-10T06:09:43;1.05;;;0.80;;
80193;SDS011;69515;42.072;21.504;2023-05-10T06:12:09;1.05;;;0.95;;
80193;SDS011;69515;42.072;21.504;2023-05-10T06:14:37;0.57;;;0.57;;
80193;SDS011;69515;42.072;21.504;2023-05-10T06:17:06;1.27;;;0.70;;
80193;SDS011;69515;42.072;21.504;2023-05-10T06:19:32;0.80;;;0.70;;
80193;SDS011;69515;42.072;21.504;2023-05-10T06:21:59;0.95;;;0.73;;
80193;SDS011;69515;42.072;21.504;2023-05-10T06:24:25;0.93;;;0.70;;
80193;SDS011;69515;42.072;21.504;2023-05-10T06:26:52;0.60;;;0.60;;
80193;SDS011;69515;42.072;21.504;2023-05-10T06:29:18;0.65;;;0.50;;
80193;SDS011;69515;42.072;21.504;2023-05-10T06:31:45;0.55;;;0.52;;
80193;SDS011;69515;42.072;21.504;2023-05-10T06:34:11;0.73;;;0.60;;
80193;SDS011;69515;42.072;21.504;2023-05-10T06:36:58;0.38;;;0.30;;
80193;SDS011;69515;42.072;21.504;2023-05-10T06:39:25;1.50;;;0.70;;
80193;SDS011;69515;42.072;21.504;2023-05-10T06:41:51;1.00;;;0.90;;
80193;SDS011;69515;42.072;21.504;2023-05-10T06:44:17;0.43;;;0.40;;
80193;SDS011;69515;42.072;21.504;2023-05-10T06:46:43;0.45;;;0.45;;
80193;SDS011;69515;42.072;21.504;2023-05-10T06:49:10;0.80;;;0.70;;
80193;SDS011;69515;42.072;21.504;2023-05-10T06:51:36;1.13;;;0.80;;
80193;SDS011;69515;42.072;21.504;2023-05-10T06:54:03;0.70;;;0.60;;
80193;SDS011;69515;42.072;21.504;2023-05-10T06:56:29;0.40;;;0.40;;
80193;SDS011;69515;42.072;21.504;2023-05-10T06:58:55;0.70;;;0.60;;
80193;SDS011;69515;42.072;21.504;2023-05-10T07:01:21;0.70;;;0.60;;
80193;SDS011;69515;42.072;21.504;2023-05-10T07:03:47;0.70;;;0.52;;
80193;SDS011;69515;42.072;21.504;2023-05-10T07:06:14;0.40;;;0.40;;
80193;SDS011;69515;42.072;21.504;2023-05-10T07:08:40;0.77;;;0.43;;
80193;SDS011;69515;42.072;21.504;2023-05-10T07:11:07;0.50;;;0.50;;
80193;SDS011;69515;42.072;21.504;2023-05-10T07:13:33;0.50;;;0.50;;
80193;SDS011;69515;42.072;21.504;2023-05-10T07:16:01;0.40;;;0.40;;
80193;SDS011;69515;42.072;21.504;2023-05-10T07:18:28;0.77;;;0.50;;
80193;SDS011;69515;42.072;21.504;2023-05-10T07:20:54;0.50;;;0.50;;
80193;SDS011;69515;42.072;21.504;2023-05-10T07:23:20;0.88;;;0.50;;
80193;SDS011;69515;42.072;21.504;2023-05-10T07:25:47;0.52;;;0.50;;
80193;SDS011;69515;42.072;21.504;2023-05-10T07:28:14;0.65;;;0.60;;
80193;SDS011;69515;42.072;21.504;2023-05-10T07:30:40;0.50;;;0.50;;
80193;SDS011;69515;42.072;21.504;2023-05-10T07:33:07;0.50;;;0.50;;
80193;SDS011;69515;42.072;21.504;2023-05-10T07:35:33;0.63;;;0.50;;
80193;SDS011;69515;42.072;21.504;2023-05-10T07:38:00;0.50;;;0.50;;
80193;SDS011;69515;42.072;21.504;2023-05-10T07:40:26;0.85;;;0.40;;
80193;SDS011;69515;42.072;21.504;2023-05-10T07:42:52;0.52;;;0.50;;
80193;SDS011;69515;42.072;21.504;2023-05-10T07:45:19;1.08;;;0.68;;
80193;SDS011;69515;42.072;21.504;2023-05-10T07:47:45;1.10;;;0.63;;
80193;SDS011;69515;42.072;21.504;2023-05-10T07:50:13;1.13;;;0.70;;
80193;SDS011;69515;42.072;21.504;2023-05-10T07:52:43;1.48;;;0.63;;
80193;SDS011;69515;42.072;21.504;2023-05-10T07:55:10;0.73;;;0.60;;
80193;SDS011;69515;42.072;21.504;2023-05-10T07:57:37;0.73;;;0.60;;
80193;SDS011;69515;42.072;21.504;2023-05-10T08:00:04;0.73;;;0.60;;
80193;SDS011;69515;42.072;21.504;2023-05-10T08:02:31;1.17;;;0.43;;
80193;SDS011;69515;42.072;21.504;2023-05-10T08:04:57;0.65;;;0.52;;
80193;SDS011;69515;42.072;21.504;2023-05-10T08:07:24;0.40;;;0.40;;
80193;SDS011;69515;42.072;21.504;2023-05-10T08:09:50;0.45;;;0.40;;
80193;SDS011;69515;42.072;21.504;2023-05-10T08:12:16;0.95;;;0.70;;
80193;SDS011;69515;42.072;21.504;2023-05-10T08:14:42;0.70;;;0.60;;
80193;SDS011;69515;42.072;21.504;2023-05-10T08:17:09;0.88;;;0.60;;
80193;SDS011;69515;42.072;21.504;2023-05-10T08:19:35;0.70;;;0.60;;
80193;SDS011;69515;42.072;21.504;2023-05-10T08:22:01;0.70;;;0.70;;
80193;SDS011;69515;42.072;21.504;2023-05-10T08:24:27;1.73;;;0.80;;
80193;SDS011;69515;42.072;21.504;2023-05-10T08:26:53;0.60;;;0.60;;
80193;SDS011;69515;42.072;21.504;2023-05-10T08:29:20;0.95;;;0.70;;
80193;SDS011;69515;42.072;21.504;2023-05-10T08:31:46;1.13;;;0.80;;
80193;SDS011;69515;42.072;21.504;2023-05-10T08:34:12;0.55;;;0.50;;
80193;SDS011;69515;42.072;21.504;2023-05-10T08:36:38;1.02;;;0.60;;
80193;SDS011;69515;42.072;21.504;2023-05-10T08:39:23;2.03;;;1.02;;
80193;SDS011;69515;42.072;21.504;2023-05-10T08:41:50;0.88;;;0.73;;
80193;SDS011;69515;42.072;21.504;2023-05-10T08:44:17;1.45;;;0.80;;
80193;SDS011;69515;42.072;21.504;2023-05-10T08:46:45;0.50;;;0.50;;
80193;SDS011;69515;42.072;21.504;2023-05-10T08:49:17;1.50;;;0.75;;
80193;SDS011;69515;42.072;21.504;2023-05-10T08:51:44;0.50;;;0.50;;
80193;SDS011;69515;42.072;21.504;2023-05-10T08:54:13;2.30;;;1.48;;
80193;SDS011;69515;42.072;21.504;2023-05-10T08:56:39;1.35;;;0.98;;
80193;SDS011;69515;42.072;21.504;2023-05-10T08:59:06;1.13;;;0.82;;
80193;SDS011;69515;42.072;21.504;2023-05-10T09:01:32;1.02;;;0.77;;
80193;SDS011;69515;42.072;21.504;2023-05-10T09:03:59;2.05;;;0.75;;
80193;SDS011;69515;42.072;21.504;2023-05-10T09:06:26;1.60;;;0.90;;
80193;SDS011;69515;42.072;21.504;2023-05-10T09:08:52;0.80;;;0.77;;
80193;SDS011;69515;42.072;21.504;2023-05-10T09:11:18;0.80;;;0.70;;
80193;SDS011;69515;42.072;21.504;2023-05-10T09:13:46;1.45;;;0.70;;
80193;SDS011;69515;42.072;21.504;2023-05-10T09:16:13;1.15;;;0.60;;
80193;SDS011;69515;42.072;21.504;2023-05-10T09:18:39;0.90;;;0.60;;
80193;SDS011;69515;42.072;21.504;2023-05-10T09:21:05;1.00;;;0.82;;
80193;SDS011;69515;42.072;21.504;2023-05-10T09:23:32;4.13;;;3.45;;
80193;SDS011;69515;42.072;21.504;2023-05-10T09:26:02;1.00;;;0.75;;
80193;SDS011;69515;42.072;21.504;2023-05-10T09:28:33;1.33;;;0.80;;
80193;SDS011;69515;42.072;21.504;2023-05-10T09:30:59;1.58;;;0.90;;
80193;SDS011;69515;42.072;21.504;2023-05-10T09:33:28;0.98;;;0.80;;
80193;SDS011;69515;42.072;21.504;2023-05-10T09:35:54;1.35;;;0.80;;
80193;SDS011;69515;42.072;21.504;2023-05-10T09:38:21;1.05;;;0.77;;
80193;SDS011;69515;42.072;21.504;2023-05-10T09:40:53;0.57;;;0.57;;
80193;SDS011;69515;42.072;21.504;2023-05-10T09:43:20;1.67;;;0.75;;
80193;SDS011;69515;42.072;21.504;2023-05-10T09:45:47;1.05;;;0.70;;
80193;SDS011;69515;42.072;21.504;2023-05-10T09:51:46;0.63;;;0.63;;
80193;SDS011;69515;42.072;21.504;2023-05-10T09:54:14;0.60;;;0.52;;
80193;SDS011;69515;42.072;21.504;2023-05-10T09:57:02;0.95;;;0.80;;
80193;SDS011;69515;42.072;21.504;2023-05-10T10:02:42;0.70;;;0.50;;
80193;SDS011;69515;42.072;21.504;2023-05-10T10:05:08;0.70;;;0.70;;
80193;SDS011;69515;42.072;21.504;2023-05-10T10:07:34;0.50;;;0.50;;
80193;SDS011;69515;42.072;21.504;2023-05-10T10:10:01;0.88;;;0.60;;
80193;SDS011;69515;42.072;21.504;2023-05-10T10:12:27;0.65;;;0.65;;
80193;SDS011;69515;42.072;21.504;2023-05-10T10:14:54;0.45;;;0.40;;
80193;SDS011;69515;42.072;21.504;2023-05-10T10:17:21;0.45;;;0.40;;
80193;SDS011;69515;42.072;21.504;2023-05-10T10:19:47;0.45;;;0.45;;
80193;SDS011;69515;42.072;21.504;2023-05-10T10:22:16;0.75;;;0.45;;
80193;SDS011;69515;42.072;21.504;2023-05-10T10:27:42;0.73;;;0.60;;
80193;SDS011;69515;42.072;21.504;2023-05-10T10:35:13;0.50;;;0.50;;
80193;SDS011;69515;42.072;21.504;2023-05-10T10:37:47;0.40;;;0.40;;
80193;SDS011;69515;42.072;21.504;2023-05-10T10:40:31;0.70;;;0.70;;
80193;SDS011;69515;42.072;21.504;2023-05-10T10:58:31;1.02;;;0.43;;
80193;SDS011;69515;42.072;21.504;2023-05-10T11:01:32;0.30;;;0.30;;
80193;SDS011;69515;42.072;21.504;2023-05-10T11:06:48;0.68;;;0.60;;
80193;SDS011;69515;42.072;21.504;2023-05-10T11:09:41;0.50;;;0.50;;
80193;SDS011;69515;42.072;21.504;2023-05-10T11:15:27;0.63;;;0.50;;
80193;SDS011;69515;42.072;21.504;2023-05-10T11:17:55;0.50;;;0.50;;
80193;SDS011;69515;42.072;21.504;2023-05-10T11:20:22;0.40;;;0.40;;
80193;SDS011;69515;42.072;21.504;2023-05-10T11:26:06;0.30;;;0.30;;
80193;SDS011;69515;42.072;21.504;2023-05-10T11:34:25;0.40;;;0.40;;
80193;SDS011;69515;42.072;21.504;2023-05-10T11:36:53;0.40;;;0.35;;
80193;SDS011;69515;42.072;21.504;2023-05-10T11:46:27;0.70;;;0.30;;
80193;SDS011;69515;42.072;21.504;2023-05-10T11:49:02;0.30;;;0.30;;
80193;SDS011;69515;42.072;21.504;2023-05-10T11:51:33;0.60;;;0.60;;
80193;SDS011;69515;42.072;21.504;2023-05-10T11:54:13;0.50;;;0.40;;
80193;SDS011;69515;42.072;21.504;2023-05-10T12:06:08;1.38;;;0.55;;
80193;SDS011;69515;42.072;21.504;2023-05-10T12:08:33;0.70;;;0.52;;
80193;SDS011;69515;42.072;21.504;2023-05-10T12:11:39;0.65;;;0.50;;
80193;SDS011;69515;42.072;21.504;2023-05-10T12:17:32;0.55;;;0.50;;
80193;SDS011;69515;42.072;21.504;2023-05-10T12:20:18;1.92;;;0.60;;
80193;SDS011;69515;42.072;21.504;2023-05-10T12:43:30;1.17;;;0.77;;
80193;SDS011;69515;42.072;21.504;2023-05-10T12:45:58;1.13;;;0.80;;
80193;SDS011;69515;42.072;21.504;2023-05-10T12:48:25;1.70;;;0.80;;
80193;SDS011;69515;42.072;21.504;2023-05-10T12:50:53;0.52;;;0.50;;
80193;SDS011;69515;42.072;21.504;2023-05-10T12:53:20;0.50;;;0.50;;
80193;SDS011;69515;42.072;21.504;2023-05-10T12:55:46;0.50;;;0.50;;
80193;SDS011;69515;42.072;21.504;2023-05-10T12:58:13;0.63;;;0.40;;
80193;SDS011;69515;42.072;21.504;2023-05-10T13:00:40;0.43;;;0.43;;
80193;SDS011;69515;42.072;21.504;2023-05-10T13:08:23;0.55;;;0.40;;
80193;SDS011;69515;42.072;21.504;2023-05-10T13:10:50;0.70;;;0.50;;
80193;SDS011;69515;42.072;21.504;2023-05-10T13:13:17;0.30;;;0.30;;
80193;SDS011;69515;42.072;21.504;2023-05-10T13:15:44;0.30;;;0.30;;
80193;SDS011;69515;42.072;21.504;2023-05-10T13:18:10;0.40;;;0.40;;
80193;SDS011;69515;42.072;21.504;2023-05-10T13:20:37;0.55;;;0.40;;
80193;SDS011;69515;42.072;21.504;2023-05-10T13:23:04;0.85;;;0.40;;
80193;SDS011;69515;42.072;21.504;2023-05-10T13:25:35;0.57;;;0.35;;
80193;SDS011;69515;42.072;21.504;2023-05-10T13:28:02;0.38;;;0.38;;
80193;SDS011;69515;42.072;21.504;2023-05-10T13:33:19;0.30;;;0.30;;
80193;SDS011;69515;42.072;21.504;2023-05-10T13:35:45;0.20;;;0.20;;
80193;SDS011;69515;42.072;21.504;2023-05-10T13:41:55;0.40;;;0.40;;
80193;SDS011;69515;42.072;21.504;2023-05-10T13:44:22;0.30;;;0.25;;
80193;SDS011;69515;42.072;21.504;2023-05-10T13:46:48;0.43;;;0.30;;
80193;SDS011;69515;42.072;21.504;2023-05-10T13:49:16;1.35;;;0.30;;
80193;SDS011;69515;42.072;21.504;2023-05-10T13:51:43;0.75;;;0.40;;
80193;SDS011;69515;42.072;21.504;2023-05-10T13:57:10;0.45;;;0.25;;
80193;SDS011;69515;42.072;21.504;2023-05-10T14:02:51;0.25;;;0.25;;
80193;SDS011;69515;42.072;21.504;2023-05-10T14:05:17;0.20;;;0.20;;
80193;SDS011;69515;42.072;21.504;2023-05-10T14:07:44;0.25;;;0.20;;
80193;SDS011;69515;42.072;21.504;2023-05-10T14:10:10;0.20;;;0.20;;
80193;SDS011;69515;42.072;21.504;2023-05-10T14:12:36;0.70;;;0.50;;
80193;SDS011;69515;42.072;21.504;2023-05-10T14:15:03;0.40;;;0.40;;
80193;SDS011;69515;42.072;21.504;2023-05-10T14:17:31;0.47;;;0.40;;
80193;SDS011;69515;42.072;21.504;2023-05-10T14:19:58;0.70;;;0.40;;
80193;SDS011;69515;42.072;21.504;2023-05-10T14:22:24;0.82;;;0.30;;
80193;SDS011;69515;42.072;21.504;2023-05-10T14:24:50;0.63;;;0.40;;
80193;SDS011;69515;42.072;21.504;2023-05-10T14:27:16;1.10;;;0.50;;
80193;SDS011;69515;42.072;21.504;2023-05-10T14:29:43;0.30;;;0.30;;
80193;SDS011;69515;42.072;21.504;2023-05-10T14:32:09;0.60;;;0.30;;
80193;SDS011;69515;42.072;21.504;2023-05-10T14:34:35;0.65;;;0.30;;
80193;SDS011;69515;42.072;21.504;2023-05-10T14:37:02;0.70;;;0.45;;
80193;SDS011;69515;42.072;21.504;2023-05-10T14:39:29;0.68;;;0.40;;
80193;SDS011;69515;42.072;21.504;2023-05-10T14:41:55;1.92;;;0.50;;
80193;SDS011;69515;42.072;21.504;2023-05-10T14:44:23;0.38;;;0.38;;
80193;SDS011;69515;42.072;21.504;2023-05-10T14:46:52;0.98;;;0.47;;
80193;SDS011;69515;42.072;21.504;2023-05-10T14:49:19;1.63;;;0.70;;
80193;SDS011;69515;42.072;21.504;2023-05-10T14:51:51;0.30;;;0.30;;
80193;SDS011;69515;42.072;21.504;2023-05-10T14:54:18;0.40;;;0.40;;
80193;SDS011;69515;42.072;21.504;2023-05-10T14:56:44;1.10;;;0.70;;
80193;SDS011;69515;42.072;21.504;2023-05-10T14:59:11;0.80;;;0.50;;
80193;SDS011;69515;42.072;21.504;2023-05-10T15:01:37;1.63;;;0.50;;
80193;SDS011;69515;42.072;21.504;2023-05-10T15:04:03;0.40;;;0.30;;
80193;SDS011;69515;42.072;21.504;2023-05-10T15:06:30;1.02;;;0.40;;
80193;SDS011;69515;42.072;21.504;2023-05-10T15:08:57;0.40;;;0.40;;
80193;SDS011;69515;42.072;21.504;2023-05-10T15:11:23;0.43;;;0.43;;
80193;SDS011;69515;42.072;21.504;2023-05-10T15:13:49;0.75;;;0.68;;
80193;SDS011;69515;42.072;21.504;2023-05-10T15:16:15;1.92;;;0.63;;
80193;SDS011;69515;42.072;21.504;2023-05-10T15:18:41;0.52;;;0.40;;
80193;SDS011;69515;42.072;21.504;2023-05-10T15:21:08;0.85;;;0.60;;
80193;SDS011;69515;42.072;21.504;2023-05-10T15:23:34;0.55;;;0.52;;
80193;SDS011;69515;42.072;21.504;2023-05-10T15:26:01;0.45;;;0.45;;
80193;SDS011;69515;42.072;21.504;2023-05-10T15:28:28;0.50;;;0.50;;
80193;SDS011;69515;42.072;21.504;2023-05-10T15:30:55;0.95;;;0.40;;
80193;SDS011;69515;42.072;21.504;2023-05-10T15:33:21;0.50;;;0.50;;
80193;SDS011;69515;42.072;21.504;2023-05-10T15:35:48;0.50;;;0.43;;
80193;SDS011;69515;42.072;21.504;2023-05-10T15:38:15;0.95;;;0.60;;
80193;SDS011;69515;42.072;21.504;2023-05-10T15:40:41;1.30;;;0.55;;
80193;SDS011;69515;42.072;21.504;2023-05-10T15:43:07;0.60;;;0.50;;
80193;SDS011;69515;42.072;21.504;2023-05-10T15:45:34;0.70;;;0.47;;
80193;SDS011;69515;42.072;21.504;2023-05-10T15:48:00;1.08;;;0.70;;
80193;SDS011;69515;42.072;21.504;2023-05-10T15:50:26;0.60;;;0.60;;
80193;SDS011;69515;42.072;21.504;2023-05-10T15:52:52;3.17;;;0.77;;
80193;SDS011;69515;42.072;21.504;2023-05-10T15:55:19;0.60;;;0.50;;
80193;SDS011;69515;42.072;21.504;2023-05-10T15:57:45;1.33;;;0.57;;
80193;SDS011;69515;42.072;21.504;2023-05-10T16:00:12;0.30;;;0.30;;
80193;SDS011;69515;42.072;21.504;2023-05-10T16:02:39;0.65;;;0.40;;
80193;SDS011;69515;42.072;21.504;2023-05-10T16:05:06;0.40;;;0.40;;
80193;SDS011;69515;42.072;21.504;2023-05-10T16:07:32;0.85;;;0.40;;
80193;SDS011;69515;42.072;21.504;2023-05-10T16:09:59;0.82;;;0.32;;
80193;SDS011;69515;42.072;21.504;2023-05-10T16:12:28;0.20;;;0.20;;
80193;SDS011;69515;42.072;21.504;2023-05-10T16:14:54;1.02;;;0.40;;
80193;SDS011;69515;42.072;21.504;2023-05-10T16:17:21;1.00;;;0.80;;
80193;SDS011;69515;42.072;21.504;2023-05-10T16:19:47;0.90;;;0.50;;
80193;SDS011;69515;42.072;21.504;2023-05-10T16:22:13;1.65;;;0.35;;
80193;SDS011;69515;42.072;21.504;2023-05-10T16:24:39;0.50;;;0.40;;
80193;SDS011;69515;42.072;21.504;2023-05-10T16:27:06;0.40;;;0.40;;
80193;SDS011;69515;42.072;21.504;2023-05-10T16:29:32;0.63;;;0.40;;
80193;SDS011;69515;42.072;21.504;2023-05-10T16:31:59;1.08;;;0.50;;
80193;SDS011;69515;42.072;21.504;2023-05-10T16:34:25;0.50;;;0.35;;
80193;SDS011;69515;42.072;21.504;2023-05-10T16:36:51;0.70;;;0.50;;
80193;SDS011;69515;42.072;21.504;2023-05-10T16:39:18;1.75;;;0.70;;
80193;SDS011;69515;42.072;21.504;2023-05-10T16:41:44;1.73;;;0.80;;